Time;durP1;ratioP1;P1;durP2;ratioP2;P2;SDS_P1;SDS_P2;PMS_P1;PMS_P2;Temp;Humidity;BMP_temperature;BMP_pressure;BME280_temperature;BME280_humidity;BME280_pressure;Samples;Min_cycle;Max_cycle;Signal;HPM_P1;HPM_P2
2022/07/28 00:01:10;;;;;;;6.80;5.85;;;;;;;18.03;69.71;96234.25;5010730;28;20531;-76
2022/07/28 00:03:36;;;;;;;8.07;5.97;;;;;;;17.99;69.35;96234.16;5011237;28;20049;-74
2022/07/28 00:06:03;;;;;;;9.45;5.80;;;;;;;17.94;69.29;96232.50;5010449;28;20424;-74
2022/07/28 00:08:29;;;;;;;6.95;5.60;;;;;;;17.95;70.03;96234.09;5011281;28;20394;-75
2022/07/28 00:10:57;;;;;;;7.50;6.20;;;;;;;17.97;70.30;96226.28;5011099;28;20401;-74
2022/07/28 00:13:24;;;;;;;8.60;6.28;;;;;;;17.95;70.04;96234.09;5010426;28;20049;-75
2022/07/28 00:15:50;;;;;;;8.43;6.05;;;;;;;17.94;70.17;96232.50;5009796;28;20041;-75
2022/07/28 00:18:17;;;;;;;7.90;6.30;;;;;;;17.87;69.75;96229.66;5019534;28;20048;-75
2022/07/28 00:20:43;;;;;;;8.25;6.90;;;;;;;17.86;70.17;96235.53;5030570;28;20053;-75
2022/07/28 00:23:10;;;;;;;8.50;6.43;;;;;;;17.84;70.56;96235.88;5027441;28;20354;-74
2022/07/28 00:25:36;;;;;;;7.95;6.20;;;;;;;17.83;70.95;96223.28;5025985;28;20053;-76
2022/07/28 00:28:04;;;;;;;9.43;6.65;;;;;;;17.85;71.47;96223.69;5029948;28;20076;-75
2022/07/28 00:30:30;;;;;;;10.50;7.10;;;;;;;17.89;71.59;96224.56;5029860;28;20584;-75
2022/07/28 00:32:59;;;;;;;8.77;7.10;;;;;;;17.86;71.18;96217.06;5030468;28;20125;-74
2022/07/28 00:35:26;;;;;;;8.80;7.20;;;;;;;17.85;71.46;96218.19;5029833;28;20044;-75
2022/07/28 00:37:52;;;;;;;9.13;7.20;;;;;;;17.87;71.25;96210.38;5029992;28;20045;-75
2022/07/28 00:40:19;;;;;;;11.30;7.05;;;;;;;17.86;71.06;96213.50;5029674;28;20528;-75
2022/07/28 00:42:45;;;;;;;10.57;7.55;;;;;;;17.87;71.50;96218.63;5030122;28;20095;-75
2022/07/28 00:45:13;;;;;;;10.77;7.85;;;;;;;17.84;71.50;96216.59;5029558;28;20049;-75
2022/07/28 00:47:40;;;;;;;10.43;8.38;;;;;;;17.86;71.71;96213.50;5029939;28;20041;-75
2022/07/28 00:50:07;;;;;;;10.90;7.75;;;;;;;17.81;71.24;96216.56;5029673;28;20056;-76
2022/07/28 00:52:33;;;;;;;9.30;7.65;;;;;;;17.75;71.24;96207.81;5030189;28;20041;-76
2022/07/28 00:55:03;;;;;;;11.27;8.18;;;;;;;17.75;72.10;96213.34;5024339;28;20540;-74
2022/07/28 00:57:30;;;;;;;10.70;8.23;;;;;;;17.73;71.53;96210.91;5030073;28;20056;-75
2022/07/28 00:59:56;;;;;;;12.00;8.32;;;;;;;17.74;72.28;96209.75;5030232;28;20404;-75
2022/07/28 01:02:24;;;;;;;10.85;8.35;;;;;;;17.72;72.75;96203.00;5029469;28;20045;-75
2022/07/28 01:04:50;;;;;;;11.63;8.48;;;;;;;17.72;72.58;96201.06;5029739;28;20053;-75
2022/07/28 01:07:26;;;;;;;11.75;8.77;;;;;;;17.71;71.65;96202.22;5029403;28;20501;-75
2022/07/28 01:10:03;;;;;;;11.48;7.90;;;;;;;17.62;72.29;96192.59;5030054;28;20045;-75
2022/07/28 01:12:37;;;;;;;13.10;9.02;;;;;;;17.67;72.78;96195.06;5029846;28;20041;-75
2022/07/28 01:15:14;;;;;;;11.88;9.32;;;;;;;17.61;72.78;96191.03;5029385;28;20405;-75
2022/07/28 01:17:51;;;;;;;13.15;9.13;;;;;;;17.61;72.34;96188.25;5029980;28;20048;-75
2022/07/28 01:20:23;;;;;;;13.98;8.80;;;;;;;17.59;73.04;96182.31;5029609;28;20128;-75
2022/07/28 01:23:05;;;;;;;9.82;8.70;;;;;;;17.62;72.95;96181.59;5029824;28;20044;-75
2022/07/28 01:25:44;;;;;;;12.80;8.98;;;;;;;17.58;72.88;96186.22;5029579;28;20041;-76
2022/07/28 01:28:26;;;;;;;11.55;9.15;;;;;;;17.59;73.08;96187.81;5034494;28;20046;-75
2022/07/28 01:30:56;;;;;;;12.77;9.65;;;;;;;17.52;73.45;96187.72;5034841;28;20473;-74
2022/07/28 01:33:28;;;;;;;12.38;9.38;;;;;;;17.53;73.32;96175.53;5033572;28;20041;-75
2022/07/28 01:35:59;;;;;;;11.18;8.90;;;;;;;17.59;73.74;96180.38;5033785;28;20400;-74
2022/07/28 01:38:27;;;;;;;14.98;10.38;;;;;;;17.53;74.19;96178.28;5033057;28;20532;-76
2022/07/28 01:40:56;;;;;;;13.00;9.20;;;;;;;17.51;73.75;96175.09;5033259;28;20046;-75
2022/07/28 01:43:26;;;;;;;12.60;9.95;;;;;;;17.51;73.45;96169.59;5032858;28;20046;-75
2022/07/28 01:45:56;;;;;;;9.77;8.65;;;;;;;17.51;73.65;96169.59;5033504;28;20770;-75
2022/07/28 01:48:25;;;;;;;15.50;9.55;;;;;;;17.50;73.92;96174.31;5032783;28;20080;-75
2022/07/28 01:50:55;;;;;;;13.80;10.00;;;;;;;17.51;74.31;96167.66;5033377;28;20042;-76
2022/07/28 01:53:23;;;;;;;15.10;10.18;;;;;;;17.25;73.31;96168.38;5032584;28;20048;-76
2022/07/28 01:55:52;;;;;;;12.93;9.20;;;;;;;17.32;73.97;96162.97;5033131;28;20046;-75
2022/07/28 01:58:21;;;;;;;11.73;9.57;;;;;;;17.36;73.96;96157.53;5032679;28;20076;-75
2022/07/28 02:00:50;;;;;;;13.48;9.40;;;;;;;17.21;73.56;96159.25;5033262;28;20049;-74
2022/07/28 02:03:19;;;;;;;14.80;10.75;;;;;;;17.12;74.09;96150.41;5032709;28;20057;-74
2022/07/28 02:05:49;;;;;;;11.75;10.23;;;;;;;17.03;74.16;96150.69;5033077;28;20052;-75
2022/07/28 02:08:19;;;;;;;12.77;9.25;;;;;;;17.13;74.54;96149.28;5032430;28;20061;-74
2022/07/28 02:11:38;;;;;;;13.93;9.55;;;;;;;17.15;74.89;96156.00;5032711;28;20053;-76
2022/07/28 02:13:35;;;;;;;13.40;9.63;;;;;;;17.14;75.21;96150.88;5032297;28;20088;-76
2022/07/28 02:16:05;;;;;;;11.73;8.93;;;;;;;17.14;74.58;96142.63;5032399;28;20045;-74
2022/07/28 02:18:36;;;;;;;11.50;9.20;;;;;;;17.19;74.02;96147.81;5032931;28;20048;-76
2022/07/28 02:21:03;;;;;;;14.63;9.80;;;;;;;17.10;75.05;96147.25;5032334;28;20410;-75
2022/07/28 02:23:29;;;;;;;11.70;9.43;;;;;;;17.07;74.76;96142.47;5029401;28;20049;-75
2022/07/28 02:25:58;;;;;;;13.20;9.63;;;;;;;17.12;75.10;96148.50;5030681;28;20056;-75
2022/07/28 02:28:28;;;;;;;12.10;8.63;;;;;;;17.18;75.12;96141.53;5032440;28;20045;-74
2022/07/28 02:30:58;;;;;;;12.40;8.88;;;;;;;17.15;75.15;96141.44;5032663;28;20037;-74
2022/07/28 02:33:26;;;;;;;12.63;9.80;;;;;;;17.05;74.33;96137.34;5032143;28;20040;-75
2022/07/28 02:35:57;;;;;;;11.70;9.10;;;;;;;17.19;74.37;96145.84;5031846;28;20749;-75
2022/07/28 02:38:27;;;;;;;13.15;8.98;;;;;;;17.18;74.46;96147.03;5030979;28;20427;-75
2022/07/28 02:40:58;;;;;;;10.57;9.05;;;;;;;17.15;74.93;96146.94;5032295;28;20048;-75
2022/07/28 02:43:28;;;;;;;10.25;9.05;;;;;;;17.11;75.27;96146.88;5032005;28;20440;-75
2022/07/28 02:45:58;;;;;;;12.43;9.02;;;;;;;17.11;75.60;96146.09;5032325;28;20045;-74
2022/07/28 02:48:35;;;;;;;12.85;9.13;;;;;;;17.05;75.19;96142.03;5031777;28;20045;-74
2022/07/28 02:51:03;;;;;;;11.70;9.50;;;;;;;16.92;75.45;96144.97;5031943;28;20053;-74
2022/07/28 02:53:31;;;;;;;11.00;8.35;;;;;;;17.00;74.98;96137.63;5028919;28;20045;-74
2022/07/28 02:55:58;;;;;;;13.07;8.95;;;;;;;16.88;75.19;96143.31;5030207;28;20048;-75
2022/07/28 02:58:27;;;;;;;11.45;9.23;;;;;;;16.83;75.13;96146.34;5031549;28;20056;-74
2022/07/28 03:00:55;;;;;;;10.45;8.88;;;;;;;16.75;75.42;96139.91;5031748;28;20057;-76
2022/07/28 03:03:22;;;;;;;12.02;8.38;;;;;;;16.82;75.67;96144.78;5031536;28;20105;-75
2022/07/28 03:05:49;;;;;;;10.77;9.13;;;;;;;16.77;75.48;96147.81;5032132;28;20408;-75
2022/07/28 03:08:17;;;;;;;11.65;8.77;;;;;;;16.79;75.82;96146.28;5031313;28;20107;-75
2022/07/28 03:10:44;;;;;;;12.93;9.70;;;;;;;16.65;76.24;96155.03;5031863;28;20099;-75
2022/07/28 03:13:11;;;;;;;11.18;8.55;;;;;;;16.78;76.46;96146.66;5031406;28;20050;-75
2022/07/28 03:15:39;;;;;;;11.70;8.55;;;;;;;16.81;76.37;96149.47;5031616;28;20060;-74
2022/07/28 03:18:05;;;;;;;10.82;7.93;;;;;;;16.84;76.79;96148.72;5031237;28;20092;-74
2022/07/28 03:20:33;;;;;;;10.73;9.05;;;;;;;16.84;76.65;96142.44;5031619;28;20049;-74
2022/07/28 03:22:59;;;;;;;11.45;9.35;;;;;;;16.81;77.02;96154.16;5031597;28;20056;-75
2022/07/28 03:25:32;;;;;;;12.25;9.35;;;;;;;16.66;76.30;96153.84;5030530;28;20037;-76
2022/07/28 03:28:04;;;;;;;12.73;9.15;;;;;;;16.61;76.28;96156.91;5031493;28;20044;-74
2022/07/28 03:30:34;;;;;;;11.77;8.53;;;;;;;16.70;76.82;96167.66;5029552;28;20048;-76
2022/07/28 03:33:02;;;;;;;12.13;9.00;;;;;;;16.65;77.17;96156.94;5031251;28;20280;-75
2022/07/28 03:35:32;;;;;;;11.57;9.43;;;;;;;16.68;77.18;96161.75;5031180;28;20052;-76
2022/07/28 03:38:05;;;;;;;14.77;9.00;;;;;;;16.55;76.93;96163.84;5031309;28;20046;-75
2022/07/28 03:40:35;;;;;;;13.45;9.73;;;;;;;16.55;77.04;96166.59;5030829;28;20093;-75
2022/07/28 03:43:06;;;;;;;13.57;9.45;;;;;;;16.57;76.90;96172.50;5030567;28;20382;-74
2022/07/28 03:45:32;;;;;;;11.70;9.48;;;;;;;16.51;77.45;96168.47;5030876;28;20567;-76
2022/07/28 03:47:59;;;;;;;13.20;9.52;;;;;;;16.63;77.33;96164.78;5030754;28;20520;-76
2022/07/28 03:50:27;;;;;;;11.23;9.27;;;;;;;16.65;77.45;96166.03;5030090;28;20043;-75
2022/07/28 03:52:55;;;;;;;13.60;9.57;;;;;;;16.57;78.21;96161.53;5031023;28;20056;-75
2022/07/28 03:55:22;;;;;;;13.77;9.15;;;;;;;16.46;77.70;96168.75;5024851;28;20052;-75
2022/07/28 03:57:50;;;;;;;12.80;9.48;;;;;;;16.55;78.33;96171.28;5031061;28;20052;-76
2022/07/28 04:00:18;;;;;;;10.70;9.05;;;;;;;16.48;78.21;96169.19;5030133;28;20050;-74
2022/07/28 04:02:45;;;;;;;10.80;8.90;;;;;;;16.53;77.76;96168.09;5030521;28;20049;-75
2022/07/28 04:05:13;;;;;;;14.15;10.02;;;;;;;16.44;78.38;96174.63;5030046;28;20520;-74
2022/07/28 04:07:40;;;;;;;10.27;8.88;;;;;;;16.41;77.93;96169.81;5030656;28;20049;-75
2022/07/28 04:10:09;;;;;;;12.93;9.90;;;;;;;16.37;79.08;96168.94;5030070;28;20045;-74
2022/07/28 04:12:50;;;;;;;14.48;9.30;;;;;;;16.37;79.04;96157.97;5031154;28;20037;-77
2022/07/28 04:15:18;;;;;;;12.82;9.15;;;;;;;16.50;78.55;96163.34;5030946;28;20045;-75
2022/07/28 04:17:47;;;;;;;11.43;9.15;;;;;;;16.50;77.92;96160.59;5031871;28;20055;-76
2022/07/28 04:20:14;;;;;;;10.95;9.57;;;;;;;16.51;78.34;96162.19;5030605;28;20049;-76
2022/07/28 04:22:40;;;;;;;12.32;10.00;;;;;;;16.39;78.72;96161.16;5030699;28;20129;-76
2022/07/28 04:25:08;;;;;;;15.95;10.38;;;;;;;16.34;79.43;96155.94;5028592;28;20424;-78
2022/07/28 04:27:36;;;;;;;10.85;9.02;;;;;;;16.43;79.62;96162.00;5030467;28;20046;-77
2022/07/28 04:30:03;;;;;;;11.13;9.38;;;;;;;16.41;79.25;96164.31;5030019;28;20451;-76
2022/07/28 04:32:31;;;;;;;13.60;9.15;;;;;;;16.29;79.54;96158.97;5030371;28;20496;-76
2022/07/28 04:34:58;;;;;;;11.95;8.40;;;;;;;16.47;79.62;96161.28;5030391;28;20037;-76
2022/07/28 04:37:24;;;;;;;11.02;9.27;;;;;;;16.48;79.11;96157.38;5030041;28;20492;-75
2022/07/28 04:39:51;;;;;;;11.57;8.73;;;;;;;16.57;79.28;96160.72;5030214;28;20042;-74
2022/07/28 04:42:18;;;;;;;11.40;10.18;;;;;;;16.49;78.77;96164.47;5029741;28;20544;-76
2022/07/28 04:44:44;;;;;;;13.02;9.63;;;;;;;16.51;79.13;96167.66;5030350;28;20065;-75
2022/07/28 04:47:12;;;;;;;14.75;11.07;;;;;;;16.39;79.12;96172.16;5029915;28;20052;-74
2022/07/28 04:49:39;;;;;;;12.57;9.93;;;;;;;16.46;79.64;96171.50;5030016;28;20041;-74
2022/07/28 04:52:07;;;;;;;12.10;9.50;;;;;;;16.46;79.26;96178.94;5029613;28;20050;-74
2022/07/28 04:54:34;;;;;;;13.27;10.02;;;;;;;16.32;80.27;96174.72;5030010;28;20498;-74
2022/07/28 04:57:00;;;;;;;11.38;8.43;;;;;;;16.43;79.93;96178.50;5030000;28;20053;-75
2022/07/28 04:59:27;;;;;;;17.63;9.90;;;;;;;16.36;80.04;96183.84;5029641;28;20481;-78
2022/07/28 05:01:55;;;;;;;14.38;9.88;;;;;;;16.35;79.82;96181.47;5032181;28;20049;-75
2022/07/28 05:04:21;;;;;;;11.07;9.35;;;;;;;16.41;80.00;96183.56;5033747;28;20054;-75
2022/07/28 05:06:49;;;;;;;12.75;9.27;;;;;;;16.40;80.15;96175.69;5034375;28;20041;-76
2022/07/28 05:09:16;;;;;;;14.40;9.98;;;;;;;16.39;80.35;96183.16;5033411;28;20052;-77
2022/07/28 05:11:42;;;;;;;13.63;10.02;;;;;;;16.45;80.26;96175.41;5034334;28;20060;-75
2022/07/28 05:14:09;;;;;;;10.88;9.70;;;;;;;16.37;80.21;96181.91;5033570;28;20444;-75
2022/07/28 05:16:36;;;;;;;12.80;9.38;;;;;;;16.39;80.99;96177.66;5034294;28;20073;-78
2022/07/28 05:19:03;;;;;;;14.88;9.63;;;;;;;16.31;81.05;96181.38;5033628;28;20055;-79
2022/07/28 05:21:30;;;;;;;12.80;9.13;;;;;;;16.19;81.36;96173.28;5033862;28;20048;-79
2022/07/28 05:23:58;;;;;;;13.68;10.55;;;;;;;16.32;81.21;96182.97;5033589;28;20508;-78
2022/07/28 05:26:25;;;;;;;15.18;9.98;;;;;;;16.32;80.72;96182.97;5033096;28;20452;-78
2022/07/28 05:28:52;;;;;;;15.00;9.55;;;;;;;16.31;80.88;96178.63;5033912;28;20045;-78
2022/07/28 05:31:18;;;;;;;16.70;10.57;;;;;;;16.35;81.45;96182.25;5033257;28;20061;-78
2022/07/28 05:33:45;;;;;;;16.42;9.98;;;;;;;16.31;81.66;96177.84;5033758;28;20061;-78
2022/07/28 05:36:12;;;;;;;11.98;8.98;;;;;;;16.57;81.24;96178.00;5032764;28;20064;-79
2022/07/28 05:38:38;;;;;;;13.10;8.95;;;;;;;16.58;80.26;96179.59;5033335;28;20050;-78
2022/07/28 05:41:06;;;;;;;12.77;8.98;;;;;;;16.54;80.35;96177.94;5033065;28;20052;-78
2022/07/28 05:43:34;;;;;;;16.48;9.02;;;;;;;16.55;81.25;96169.34;5033001;28;20056;-80
2022/07/28 05:46:00;;;;;;;13.60;8.93;;;;;;;16.64;80.63;96177.34;5033177;28;20088;-78
2022/07/28 05:48:27;;;;;;;11.27;8.60;;;;;;;16.76;80.24;96180.00;5032722;28;20048;-79
2022/07/28 05:50:53;;;;;;;13.15;9.52;;;;;;;16.61;79.79;96189.09;5033041;28;20049;-79
2022/07/28 05:53:20;;;;;;;10.52;8.15;;;;;;;16.85;79.49;96194.31;5032596;28;20088;-78
2022/07/28 05:55:47;;;;;;;11.73;7.97;;;;;;;17.00;79.52;96192.66;5032397;28;20049;-77
2022/07/28 05:58:15;;;;;;;15.30;8.50;;;;;;;16.93;78.96;96204.31;5032369;28;20049;-77
2022/07/28 06:00:42;;;;;;;13.80;8.65;;;;;;;16.89;78.86;96200.69;5032864;28;20042;-77
2022/07/28 06:03:08;;;;;;;12.65;9.13;;;;;;;16.94;79.21;96194.91;5032184;28;20104;-77
2022/07/28 06:05:36;;;;;;;11.05;7.97;;;;;;;17.04;79.31;96200.97;5032742;28;20412;-79
2022/07/28 06:08:02;;;;;;;11.73;8.15;;;;;;;17.10;79.35;96194.03;5032130;28;20180;-79
2022/07/28 06:10:57;;;;;;;10.77;8.13;;;;;;;17.00;79.08;96200.09;5032931;28;20046;-79
2022/07/28 06:13:18;;;;;;;11.55;8.20;;;;;;;17.05;79.94;96195.09;5031915;28;20045;-77
2022/07/28 06:15:47;;;;;;;13.68;7.97;;;;;;;17.15;78.62;96199.22;5032592;28;20049;-77
2022/07/28 06:18:14;;;;;;;12.07;7.90;;;;;;;17.23;78.75;96192.72;5032146;28;20133;-78
2022/07/28 06:20:41;;;;;;;9.88;7.93;;;;;;;17.26;78.43;96186.47;5032669;28;20076;-77
2022/07/28 06:23:07;;;;;;;10.57;7.70;;;;;;;17.37;78.54;96181.94;5031793;28;20068;-77
2022/07/28 06:25:34;;;;;;;10.65;7.80;;;;;;;17.41;78.71;96188.31;5031928;28;20060;-79
2022/07/28 06:28:02;;;;;;;14.55;8.07;;;;;;;17.58;78.30;96189.78;5032396;28;20041;-76
2022/07/28 06:30:31;;;;;;;12.63;7.38;;;;;;;17.62;78.64;96187.09;5031924;28;20417;-77
2022/07/28 06:32:58;;;;;;;8.77;7.20;;;;;;;17.69;77.41;96198.22;5032455;28;20489;-77
2022/07/28 06:35:25;;;;;;;10.45;7.40;;;;;;;17.59;77.83;96193.31;5031523;28;20046;-77
2022/07/28 06:37:52;;;;;;;10.45;7.40;;;;;;;17.72;77.57;96194.75;5031781;28;20503;-76
2022/07/28 06:40:20;;;;;;;11.20;7.80;;;;;;;17.63;78.08;96194.19;5031411;28;20054;-79
2022/07/28 06:42:48;;;;;;;13.60;7.38;;;;;;;17.69;77.68;96193.50;5032265;28;20046;-77
2022/07/28 06:45:15;;;;;;;13.43;6.88;;;;;;;17.81;77.47;96192.56;5031613;28;20521;-77
2022/07/28 06:47:42;;;;;;;9.93;7.00;;;;;;;17.88;77.09;96200.94;5031926;28;20042;-77
2022/07/28 06:50:09;;;;;;;10.27;6.93;;;;;;;18.07;76.66;96199.28;5031420;28;20046;-77
2022/07/28 06:52:36;;;;;;;9.40;6.60;;;;;;;18.11;76.77;96200.91;5032003;28;20052;-77
2022/07/28 06:55:04;;;;;;;9.02;6.50;;;;;;;18.16;75.52;96199.78;5031232;28;20057;-78
2022/07/28 06:57:33;;;;;;;11.25;6.57;;;;;;;18.15;75.81;96201.75;5031533;28;20512;-77
2022/07/28 07:00:01;;;;;;;8.13;5.70;;;;;;;18.22;75.91;96204.63;5031831;28;20050;-77
2022/07/28 07:02:27;;;;;;;9.93;6.20;;;;;;;18.27;75.24;96206.28;5031402;28;20042;-77
2022/07/28 07:04:55;;;;;;;10.23;6.07;;;;;;;18.29;74.47;96192.91;5031692;28;20052;-78
2022/07/28 07:07:22;;;;;;;11.05;5.97;;;;;;;18.29;75.21;96192.13;5031011;28;20540;-78
2022/07/28 07:09:50;;;;;;;11.07;6.10;;;;;;;18.52;74.92;96190.88;5031644;28;20040;-77
2022/07/28 07:12:16;;;;;;;6.65;5.53;;;;;;;18.70;74.85;96191.16;5031050;28;20180;-77
2022/07/28 07:14:43;;;;;;;7.85;6.22;;;;;;;18.77;73.90;96190.44;5031270;28;20048;-77
2022/07/28 07:17:09;;;;;;;8.05;5.65;;;;;;;18.76;73.58;96192.41;5031054;28;20056;-78
2022/07/28 07:19:36;;;;;;;9.30;5.50;;;;;;;18.93;73.58;96187.47;5031554;28;20099;-77
2022/07/28 07:22:03;;;;;;;6.75;4.88;;;;;;;19.02;73.24;96183.25;5030713;28;20049;-77
2022/07/28 07:24:30;;;;;;;7.55;5.45;;;;;;;19.10;72.86;96191.59;5030734;28;20045;-78
2022/07/28 07:26:56;;;;;;;8.45;5.60;;;;;;;19.10;72.12;96186.09;5031454;28;20045;-76
2022/07/28 07:29:23;;;;;;;9.25;6.13;;;;;;;19.09;71.51;96184.50;5030653;28;20409;-78
2022/07/28 07:31:50;;;;;;;9.63;5.70;;;;;;;19.18;71.90;96187.75;5031537;28;20473;-77
2022/07/28 07:34:17;;;;;;;6.68;5.80;;;;;;;19.32;71.63;96179.63;5030704;28;20061;-77
2022/07/28 07:36:43;;;;;;;9.88;5.47;;;;;;;19.31;71.17;96180.78;5030743;28;20083;-77
2022/07/28 07:39:11;;;;;;;8.68;5.70;;;;;;;19.27;70.66;96174.47;5030243;28;20061;-77
2022/07/28 07:41:38;;;;;;;7.00;4.75;;;;;;;19.40;70.30;96173.00;5031299;28;20041;-77
2022/07/28 07:44:04;;;;;;;9.43;4.97;;;;;;;19.54;69.83;96161.31;5030559;28;20049;-79
2022/07/28 07:46:31;;;;;;;7.90;4.97;;;;;;;19.65;69.79;96158.66;5030947;28;20050;-79
2022/07/28 07:48:57;;;;;;;7.53;4.75;;;;;;;19.77;69.32;96159.16;5030805;28;20052;-78
2022/07/28 07:51:24;;;;;;;5.60;4.40;;;;;;;19.98;68.89;96161.28;5030117;28;20042;-77
2022/07/28 07:53:50;;;;;;;8.35;4.15;;;;;;;20.15;67.91;96167.31;5030364;28;20045;-77
2022/07/28 07:56:18;;;;;;;7.93;4.57;;;;;;;20.25;66.90;96155.53;5030176;28;20049;-78
2022/07/28 07:58:44;;;;;;;9.88;4.60;;;;;;;20.38;67.44;96154.06;5030592;28;20041;-78
2022/07/28 08:01:11;;;;;;;8.65;4.32;;;;;;;20.58;66.14;96163.69;5030086;28;20049;-78
2022/07/28 08:03:38;;;;;;;6.85;4.30;;;;;;;20.75;64.94;96169.69;5030591;28;20045;-78
2022/07/28 08:06:04;;;;;;;5.82;3.97;;;;;;;21.18;63.82;96167.06;5030172;28;20050;-77
2022/07/28 08:08:31;;;;;;;7.20;4.30;;;;;;;21.76;61.44;96164.00;5030629;28;20428;-78
2022/07/28 08:10:57;;;;;;;5.35;3.90;;;;;;;22.14;59.08;96170.00;5030357;28;20045;-77
2022/07/28 08:13:25;;;;;;;6.75;4.47;;;;;;;22.28;57.99;96158.06;5029990;28;20400;-75
2022/07/28 08:15:52;;;;;;;5.53;3.65;;;;;;;22.64;58.01;96162.34;5030374;28;20046;-78
2022/07/28 08:18:19;;;;;;;8.70;3.88;;;;;;;22.85;57.57;96160.69;5029884;28;20045;-76
2022/07/28 08:20:45;;;;;;;7.97;4.07;;;;;;;23.09;56.03;96153.47;5030378;28;20041;-77
2022/07/28 08:23:12;;;;;;;8.15;3.92;;;;;;;23.25;56.37;96155.78;5030134;28;20073;-78
2022/07/28 08:25:39;;;;;;;6.38;3.67;;;;;;;23.15;55.44;96155.44;5029823;28;20044;-77
2022/07/28 08:28:05;;;;;;;7.78;4.03;;;;;;;23.31;55.15;96165.28;5029770;28;20132;-77
2022/07/28 08:30:33;;;;;;;8.52;3.70;;;;;;;23.09;55.03;96147.94;5030203;28;20053;-78
2022/07/28 08:33:01;;;;;;;5.38;3.88;;;;;;;23.08;54.93;96158.25;5030164;28;20049;-78
2022/07/28 08:35:28;;;;;;;6.03;3.28;;;;;;;23.51;56.61;96163.56;5029041;28;20723;-78
2022/07/28 08:37:55;;;;;;;6.22;3.55;;;;;;;23.42;54.98;96171.53;5029552;28;20535;-78
2022/07/28 08:40:21;;;;;;;5.05;3.17;;;;;;;23.67;54.87;96161.09;5029629;28;20486;-78
2022/07/28 08:42:52;;;;;;;7.32;3.10;;;;;;;23.61;53.65;96165.47;5029952;28;20132;-77
2022/07/28 08:45:20;;;;;;;4.97;3.30;;;;;;;23.56;54.40;96163.13;5029816;28;20041;-78
2022/07/28 08:47:49;;;;;;;5.72;3.28;;;;;;;23.74;54.04;96160.25;5029944;28;20497;-77
2022/07/28 08:50:20;;;;;;;7.38;3.60;;;;;;;23.72;53.86;96154.31;5029290;28;20069;-78
2022/07/28 08:52:51;;;;;;;5.63;3.40;;;;;;;23.69;53.77;96150.34;5029929;28;20052;-77
2022/07/28 08:55:23;;;;;;;7.97;3.25;;;;;;;24.06;55.58;96151.63;5028989;28;20440;-79
2022/07/28 08:57:49;;;;;;;5.95;3.10;;;;;;;24.13;54.54;96148.81;5029953;28;20037;-80
2022/07/28 09:00:16;;;;;;;4.70;2.97;;;;;;;24.36;53.23;96150.19;5029357;28;20070;-77
2022/07/28 09:02:45;;;;;;;6.03;3.10;;;;;;;24.39;52.17;96161.31;5029906;28;20048;-78
2022/07/28 09:05:13;;;;;;;6.32;3.10;;;;;;;24.47;53.77;96156.44;5029187;28;20076;-78
2022/07/28 09:07:41;;;;;;;3.85;2.60;;;;;;;24.63;52.62;96153.88;5029906;28;20445;-77
2022/07/28 09:10:10;;;;;;;5.32;2.78;;;;;;;24.66;51.23;96160.63;5029258;28;20049;-77
2022/07/28 09:12:36;;;;;;;10.80;3.22;;;;;;;24.70;50.70;96161.38;5029752;28;20045;-77
2022/07/28 09:15:03;;;;;;;3.17;2.53;;;;;;;24.70;51.51;96159.38;5029073;28;20505;-77
2022/07/28 09:17:30;;;;;;;6.45;2.70;;;;;;;24.75;50.06;96160.13;5029706;28;20046;-77
2022/07/28 09:19:57;;;;;;;8.25;3.03;;;;;;;24.46;49.56;96166.00;5029952;28;20509;-79
2022/07/28 09:22:25;;;;;;;2.95;2.40;;;;;;;24.55;49.61;96157.97;5029046;28;20069;-77
2022/07/28 09:24:51;;;;;;;4.38;2.70;;;;;;;24.42;49.36;96166.03;5029302;28;20057;-79
2022/07/28 09:27:18;;;;;;;6.30;2.50;;;;;;;24.33;50.27;96167.72;5029002;28;20049;-78
2022/07/28 09:29:46;;;;;;;4.97;2.63;;;;;;;24.38;49.93;96164.47;5029485;28;20045;-77
2022/07/28 09:32:13;;;;;;;4.05;2.63;;;;;;;24.68;51.38;96159.00;5029064;28;20053;-79
2022/07/28 09:34:41;;;;;;;4.35;2.50;;;;;;;24.78;51.10;96164.84;5029578;28;20452;-76
2022/07/28 09:37:15;;;;;;;5.88;2.63;;;;;;;24.91;50.40;96151.97;5028943;28;20049;-77
2022/07/28 09:39:44;;;;;;;4.00;2.55;;;;;;;25.21;50.10;96160.38;5029278;28;20532;-78
2022/07/28 09:42:11;;;;;;;5.05;2.38;;;;;;;25.28;51.12;96153.13;5029177;28;20045;-77
2022/07/28 09:44:38;;;;;;;4.18;2.75;;;;;;;25.35;49.76;96150.22;5029528;28;20056;-77
2022/07/28 09:47:21;;;;;;;4.07;2.67;;;;;;;25.12;48.26;96150.94;5029712;28;20053;-78
2022/07/28 09:49:48;;;;;;;5.35;2.80;;;;;;;25.24;48.92;96148.38;5034517;28;20476;-76
2022/07/28 09:52:27;;;;;;;6.65;2.97;;;;;;;25.19;50.55;96140.50;5035746;28;20540;-77
2022/07/28 09:55:01;;;;;;;10.90;3.80;;;;;;;25.12;47.88;96145.38;5036012;28;20125;-76
2022/07/28 09:57:28;;;;;;;7.05;2.88;;;;;;;24.98;48.69;96147.09;5036167;28;20045;-80
2022/07/28 10:00:01;;;;;;;5.45;2.70;;;;;;;24.95;47.69;96138.78;5035770;28;20056;-77
2022/07/28 10:02:30;;;;;;;4.38;2.83;;;;;;;25.07;50.62;96137.50;5035269;28;20053;-76
2022/07/28 10:04:58;;;;;;;5.57;2.88;;;;;;;25.10;49.00;96126.28;5035314;28;20045;-77
2022/07/28 10:07:28;;;;;;;4.70;2.92;;;;;;;25.10;47.18;96134.63;5034557;28;20121;-79
2022/07/28 10:09:59;;;;;;;4.50;2.67;;;;;;;24.99;47.64;96136.75;5034267;28;20390;-76
2022/07/28 10:12:29;;;;;;;5.85;3.22;;;;;;;25.15;51.12;96125.81;5033279;28;20389;-79
2022/07/28 10:14:58;;;;;;;5.60;3.05;;;;;;;25.22;49.92;96131.31;5034335;28;20045;-80
2022/07/28 10:17:27;;;;;;;5.88;2.80;;;;;;;25.38;46.99;96127.09;5033572;28;20053;-79
2022/07/28 10:19:57;;;;;;;5.18;2.78;;;;;;;25.40;46.25;96130.25;5033447;28;20038;-79
2022/07/28 10:22:26;;;;;;;6.60;3.20;;;;;;;25.52;48.52;96118.50;5032992;28;20049;-79
2022/07/28 10:24:55;;;;;;;5.50;2.65;;;;;;;25.49;47.22;96124.94;5033153;28;20038;-79
2022/07/28 10:27:23;;;;;;;4.57;2.65;;;;;;;25.55;46.79;96123.25;5032696;28;20083;-79
2022/07/28 10:29:57;;;;;;;6.72;2.88;;;;;;;25.51;45.38;96116.94;5033162;28;20080;-78
2022/07/28 10:32:23;;;;;;;5.53;2.55;;;;;;;25.69;46.34;96111.88;5032599;28;20053;-78
2022/07/28 10:34:54;;;;;;;3.00;2.28;;;;;;;25.75;47.34;96101.84;5032977;28;20465;-78
2022/07/28 10:37:23;;;;;;;5.40;2.72;;;;;;;25.64;45.27;96109.56;5032319;28;20509;-79
2022/07/28 10:39:59;;;;;;;5.80;2.78;;;;;;;25.69;46.38;96099.94;5032583;28;20045;-80
2022/07/28 10:42:28;;;;;;;3.83;2.60;;;;;;;25.81;45.47;96106.94;5032313;28;20516;-78
2022/07/28 10:44:57;;;;;;;4.60;2.75;;;;;;;25.67;45.00;96117.09;5032526;28;20048;-77
2022/07/28 10:47:25;;;;;;;5.85;2.63;;;;;;;25.80;44.55;96111.75;5031805;28;20096;-80
2022/07/28 10:49:51;;;;;;;5.97;2.75;;;;;;;25.79;44.23;96103.78;5032434;28;20052;-79
2022/07/28 10:52:19;;;;;;;4.65;2.58;;;;;;;25.93;47.04;96097.97;5031649;28;20117;-79
2022/07/28 10:55:03;;;;;;;3.90;2.58;;;;;;;26.10;48.31;96105.25;5031959;28;20056;-79
2022/07/28 10:57:31;;;;;;;3.97;2.63;;;;;;;26.02;46.10;96101.00;5031795;28;20048;-79
2022/07/28 11:00:10;;;;;;;4.95;2.53;;;;;;;26.08;44.60;96098.50;5031084;28;20475;-78
2022/07/28 11:02:51;;;;;;;4.35;2.47;;;;;;;26.15;46.15;96104.75;5031872;28;20038;-80
2022/07/28 11:05:28;;;;;;;7.78;2.35;;;;;;;26.31;44.41;96100.47;5031623;28;20045;-79
2022/07/28 11:07:56;;;;;;;5.10;2.97;;;;;;;26.14;43.16;96108.75;5031647;28;20067;-79
2022/07/28 11:10:23;;;;;;;4.35;2.13;;;;;;;26.01;43.19;96110.59;5031215;28;20049;-79
2022/07/28 11:12:52;;;;;;;5.50;2.25;;;;;;;26.14;43.52;96102.38;5031695;28;20049;-80
2022/07/28 11:15:28;;;;;;;4.05;2.50;;;;;;;25.96;43.78;96100.72;5030823;28;20164;-79
2022/07/28 11:18:02;;;;;;;4.20;2.20;;;;;;;26.01;43.74;96099.44;5031755;28;20054;-79
2022/07/28 11:21:07;;;;;;;3.92;2.20;;;;;;;26.15;45.51;96099.16;5031234;28;20041;-79
2022/07/28 11:23:38;;;;;;;5.30;2.50;;;;;;;26.13;44.22;96098.81;5030816;28;20061;-78
2022/07/28 11:26:35;;;;;;;4.32;2.30;;;;;;;26.25;43.00;96097.38;5030844;28;20042;-80
2022/07/28 11:29:44;;;;;;;4.82;2.30;;;;;;;26.09;46.30;96089.72;5030557;28;20145;-78
2022/07/28 11:32:12;;;;;;;6.93;2.60;;;;;;;26.01;43.68;96100.22;4983641;28;20045;-78
2022/07/28 11:35:08;;;;;;;4.45;2.20;;;;;;;26.02;42.43;96096.22;5031287;28;20053;-79
2022/07/28 11:38:09;;;;;;;4.10;2.25;;;;;;;26.05;43.55;96077.84;5030843;28;20038;-80